Time;durP1;ratioP1;P1;durP2;ratioP2;P2;SDS_P1;SDS_P2;PMS_P1;PMS_P2;Temp;Humidity;BMP_temperature;BMP_pressure;BME280_temperature;BME280_humidity;BME280_pressure;Samples;Min_cycle;Max_cycle;Signal;HPM_P1;HPM_P2
2021/12/27 00:01:25;;;;;;;6.63;4.45;;;;;;;20.34;41.24;96169.44;10363176;28;20029;-49
2021/12/27 00:06:44;;;;;;;5.32;4.50;;;;;;;20.33;41.29;96167.88;10354584;28;20053;-50
2021/12/27 00:12:04;;;;;;;6.90;4.30;;;;;;;20.31;41.16;96157.41;10349439;28;20673;-50
2021/12/27 00:17:24;;;;;;;6.32;4.32;;;;;;;20.30;41.09;96161.22;10358844;28;20082;-52
2021/12/27 00:22:45;;;;;;;5.88;4.30;;;;;;;20.30;41.17;96161.22;10345105;28;20046;-49
2021/12/27 00:28:04;;;;;;;5.95;4.40;;;;;;;20.29;40.98;96143.44;10360751;28;20057;-49
2021/12/27 00:33:24;;;;;;;6.03;4.40;;;;;;;20.29;41.09;96132.63;10347054;28;20050;-50
2021/12/27 00:38:43;;;;;;;5.97;3.65;;;;;;;20.27;41.37;96120.56;10364143;28;20045;-50
2021/12/27 00:44:02;;;;;;;7.30;4.20;;;;;;;20.24;41.08;96130.16;10376584;28;20038;-50
2021/12/27 00:49:23;;;;;;;6.70;3.60;;;;;;;20.22;41.25;96129.69;10376130;28;20042;-49
2021/12/27 00:54:42;;;;;;;6.10;3.90;;;;;;;20.22;41.28;96134.34;10362896;28;20111;-49
2021/12/27 01:00:06;;;;;;;5.00;3.63;;;;;;;20.20;41.38;96139.31;10374599;28;20042;-51
2021/12/27 01:05:26;;;;;;;5.25;4.05;;;;;;;20.19;41.15;96148.53;10361100;28;20045;-50
2021/12/27 01:16:10;;;;;;;4.38;3.85;;;;;;;20.12;41.22;96122.88;10362756;28;20532;-49
2021/12/27 01:21:30;;;;;;;6.30;4.50;;;;;;;20.11;41.12;96115.09;10362111;28;20542;-50
2021/12/27 01:26:49;;;;;;;5.55;3.58;;;;;;;20.09;41.22;96120.88;10375963;28;20045;-49
2021/12/27 01:32:08;;;;;;;5.00;3.50;;;;;;;20.07;41.27;96120.44;10375467;28;20044;-51
2021/12/27 01:37:28;;;;;;;4.22;3.45;;;;;;;20.08;41.13;96126.63;10362961;28;20108;-49
2021/12/27 01:43:02;;;;;;;5.28;3.78;;;;;;;20.05;41.32;96136.19;10379326;28;20044;-50
2021/12/27 01:48:30;;;;;;;4.82;3.75;;;;;;;20.04;41.10;96136.53;10369913;28;20072;-49
2021/12/27 01:53:50;;;;;;;4.75;3.67;;;;;;;20.02;41.17;96128.00;10369314;28;20050;-50
2021/12/27 01:59:10;;;;;;;5.65;4.03;;;;;;;20.00;41.17;96127.53;10355856;28;20069;-51
2021/12/27 02:04:30;;;;;;;8.65;4.63;;;;;;;19.97;41.14;96123.59;10369625;28;20054;-49
2021/12/27 02:10:01;;;;;;;6.65;3.97;;;;;;;19.95;41.03;96118.56;10368752;28;20402;-50
2021/12/27 02:15:21;;;;;;;7.40;4.45;;;;;;;19.94;41.04;96110.78;10368426;28;20459;-49
2021/12/27 02:20:41;;;;;;;8.05;4.20;;;;;;;19.92;41.05;96111.13;10368101;28;20477;-51
2021/12/27 02:26:01;;;;;;;10.35;4.90;;;;;;;19.92;41.22;96104.94;10380810;28;20045;-50
2021/12/27 02:31:21;;;;;;;9.23;4.70;;;;;;;19.90;41.16;96104.47;10367809;28;20746;-50
2021/12/27 02:36:41;;;;;;;8.35;4.70;;;;;;;19.87;41.13;96110.56;10381270;28;20068;-49
2021/12/27 02:42:00;;;;;;;10.65;5.35;;;;;;;19.86;41.18;96115.19;10352699;28;20064;-52
2021/12/27 02:47:19;;;;;;;9.30;4.60;;;;;;;19.85;41.09;96100.09;10367915;28;20053;-50
2021/12/27 02:52:39;;;;;;;10.70;4.68;;;;;;;19.82;41.12;96098.09;10365867;28;20480;-50
2021/12/27 02:57:58;;;;;;;9.90;4.18;;;;;;;19.82;41.26;96105.41;10367272;28;20053;-49
2021/12/27 03:03:18;;;;;;;9.68;4.40;;;;;;;19.79;41.26;96095.28;10380199;28;20057;-49
2021/12/27 03:08:39;;;;;;;9.63;4.50;;;;;;;19.77;41.11;96090.22;10366555;28;20121;-49
2021/12/27 03:13:59;;;;;;;10.25;4.78;;;;;;;19.75;41.10;96073.53;10379237;28;20635;-50
2021/12/27 03:19:18;;;;;;;7.90;4.50;;;;;;;19.74;41.25;96063.88;10366117;28;20598;-50
2021/12/27 03:24:38;;;;;;;9.90;5.05;;;;;;;19.72;41.12;96061.53;10366241;28;20049;-49
2021/12/27 03:29:57;;;;;;;9.60;4.45;;;;;;;19.72;41.54;96060.75;10364969;28;20046;-51
2021/12/27 03:35:25;;;;;;;7.60;4.55;;;;;;;19.69;41.79;96055.97;10365467;28;20424;-50
2021/12/27 03:40:45;;;;;;;8.45;4.80;;;;;;;19.67;41.90;96052.84;10379363;28;20044;-52
2021/12/27 03:46:05;;;;;;;7.18;4.40;;;;;;;19.66;41.94;96051.25;10378208;28;20601;-49
2021/12/27 03:51:25;;;;;;;9.60;4.53;;;;;;;19.65;41.84;96047.00;10365547;28;20054;-50
2021/12/27 03:56:44;;;;;;;7.57;4.10;;;;;;;19.63;41.80;96060.06;10378699;28;20073;-49
2021/12/27 04:02:04;;;;;;;6.55;4.25;;;;;;;19.60;41.87;96053.44;10364575;28;20050;-49
2021/12/27 04:07:27;;;;;;;6.95;3.70;;;;;;;19.59;41.85;96049.13;10363094;28;20084;-50
2021/12/27 04:12:47;;;;;;;5.63;3.63;;;;;;;19.56;41.71;96045.22;10365070;28;20057;-49
2021/12/27 04:18:09;;;;;;;6.32;3.60;;;;;;;19.55;41.76;96050.94;10364051;28;20049;-50
2021/12/27 04:23:29;;;;;;;5.78;3.72;;;;;;;19.53;41.69;96051.28;10361388;28;20062;-50
2021/12/27 04:28:49;;;;;;;4.70;3.55;;;;;;;19.53;41.65;96047.81;10376879;28;20038;-49
2021/12/27 04:34:08;;;;;;;6.18;3.88;;;;;;;19.50;41.72;96054.69;10362697;28;20575;-49
2021/12/27 04:39:27;;;;;;;5.05;3.47;;;;;;;19.49;41.67;96047.69;10363892;28;20046;-52
2021/12/27 04:44:47;;;;;;;5.15;3.40;;;;;;;19.47;41.42;96043.78;10362645;28;20050;-49
2021/12/27 04:50:07;;;;;;;6.07;3.60;;;;;;;19.45;41.52;96049.50;10356303;28;20092;-50
2021/12/27 04:55:27;;;;;;;5.60;3.38;;;;;;;19.44;41.40;96049.84;10376252;28;20042;-51
2021/12/27 05:00:47;;;;;;;5.15;3.33;;;;;;;19.42;41.28;96057.50;10362869;28;20077;-50
2021/12/27 05:06:07;;;;;;;5.68;3.67;;;;;;;19.40;41.40;96049.75;10359866;28;20528;-49
2021/12/27 05:11:26;;;;;;;4.43;2.97;;;;;;;19.39;41.32;96037.38;10362887;28;20057;-49
2021/12/27 05:16:47;;;;;;;4.75;3.28;;;;;;;19.38;41.22;96041.19;10353791;28;20533;-49
2021/12/27 05:22:07;;;;;;;4.93;3.22;;;;;;;19.36;41.31;96027.25;10378475;28;20034;-49
2021/12/27 05:27:27;;;;;;;5.40;3.47;;;;;;;19.34;41.35;96030.28;10370712;28;20042;-50
2021/12/27 05:32:47;;;;;;;5.38;3.08;;;;;;;19.33;41.29;96022.53;10371059;28;20058;-50
2021/12/27 05:38:06;;;;;;;4.22;3.38;;;;;;;19.32;41.38;96034.47;10370270;28;20057;-50
2021/12/27 05:43:27;;;;;;;4.05;2.88;;;;;;;19.31;41.19;96030.97;10382948;28;20048;-49
2021/12/27 05:48:46;;;;;;;3.67;2.97;;;;;;;19.30;41.31;96023.22;10370233;28;20038;-50
2021/12/27 05:54:06;;;;;;;4.45;3.20;;;;;;;19.30;41.24;96018.59;10369404;28;20440;-49
2021/12/27 05:59:25;;;;;;;4.55;2.80;;;;;;;19.33;41.43;96027.94;10365503;28;20059;-49
2021/12/27 06:04:44;;;;;;;5.25;3.20;;;;;;;19.33;41.41;96028.72;10362974;28;20058;-50
2021/12/27 06:10:05;;;;;;;5.68;3.35;;;;;;;19.36;41.52;96032.66;10364496;28;20465;-50
2021/12/27 06:15:24;;;;;;;5.30;3.03;;;;;;;19.37;41.53;96028.81;10366586;28;20065;-50
2021/12/27 06:20:44;;;;;;;4.50;3.10;;;;;;;19.41;41.56;96031.63;10381583;28;20049;-50
2021/12/27 06:26:04;;;;;;;4.18;2.95;;;;;;;19.43;41.52;96027.47;10360622;28;20058;-50
2021/12/27 06:31:23;;;;;;;5.05;2.90;;;;;;;19.47;41.59;96031.03;10358683;28;20054;-49
2021/12/27 06:36:43;;;;;;;4.13;2.80;;;;;;;19.49;41.78;96017.97;10368194;28;20633;-49
2021/12/27 06:42:06;;;;;;;5.78;2.95;;;;;;;19.51;41.58;96010.31;10364551;28;20096;-50
2021/12/27 06:47:26;;;;;;;4.85;2.72;;;;;;;19.54;41.62;96017.75;10380199;28;20067;-51
2021/12/27 06:52:45;;;;;;;5.43;2.70;;;;;;;19.58;41.66;96012.44;10354044;28;20474;-49
2021/12/27 06:58:05;;;;;;;4.22;3.05;;;;;;;19.63;41.92;96020.31;10352267;28;20045;-49
2021/12/27 07:03:24;;;;;;;3.25;2.70;;;;;;;19.63;42.01;96011.41;10354468;28;20057;-50
2021/12/27 07:08:47;;;;;;;4.00;2.85;;;;;;;19.66;42.21;96008.00;10367612;28;20054;-51
2021/12/27 07:14:07;;;;;;;4.57;2.55;;;;;;;19.66;42.07;96014.22;10365606;28;20053;-50
2021/12/27 07:19:27;;;;;;;4.18;2.88;;;;;;;19.67;42.10;96006.91;10365501;28;20519;-50
2021/12/27 07:24:46;;;;;;;3.47;2.50;;;;;;;19.68;41.85;96009.25;10376966;28;20048;-50
2021/12/27 07:30:09;;;;;;;3.63;2.38;;;;;;;19.68;41.88;96003.84;10348428;28;20544;-50
2021/12/27 07:35:29;;;;;;;4.55;2.45;;;;;;;19.69;41.71;96010.81;10373734;28;20038;-50
2021/12/27 07:40:48;;;;;;;4.35;2.67;;;;;;;19.69;42.00;96013.53;10364498;28;20536;-49
2021/12/27 07:46:07;;;;;;;2.90;2.40;;;;;;;19.69;41.77;96001.94;10378845;28;20091;-50
2021/12/27 07:51:27;;;;;;;3.85;2.60;;;;;;;19.69;41.75;96001.94;10378243;28;20046;-49
2021/12/27 07:56:46;;;;;;;16.15;12.63;;;;;;;19.20;28.76;96002.09;10377679;28;20060;-49
2021/12/27 08:02:05;;;;;;;18.02;14.57;;;;;;;17.84;25.64;96004.66;10373325;28;20061;-50
2021/12/27 08:07:25;;;;;;;17.10;13.93;;;;;;;16.93;25.47;96004.38;10371856;28;20116;-49
2021/12/27 08:12:44;;;;;;;20.70;15.90;;;;;;;16.41;25.38;95995.44;10366030;28;20561;-50
2021/12/27 08:18:04;;;;;;;16.67;13.20;;;;;;;16.90;29.96;95991.59;10367028;28;20048;-49
2021/12/27 08:23:24;;;;;;;13.80;10.63;;;;;;;17.71;31.84;95989.53;10363013;28;20058;-49
2021/12/27 08:28:44;;;;;;;14.07;10.80;;;;;;;18.15;32.26;95993.41;10359254;28;20050;-49
2021/12/27 08:34:04;;;;;;;12.45;9.80;;;;;;;18.43;32.69;95986.59;10364139;28;20076;-51
2021/12/27 08:39:24;;;;;;;10.57;8.93;;;;;;;18.58;32.63;95984.00;10359876;28;20050;-52
2021/12/27 08:44:44;;;;;;;12.90;8.43;;;;;;;18.72;33.36;95988.28;10366956;28;20041;-51
2021/12/27 08:50:06;;;;;;;14.02;9.00;;;;;;;18.81;34.25;95988.19;10363110;28;20045;-50
2021/12/27 08:55:25;;;;;;;11.55;8.95;;;;;;;18.90;34.56;95992.34;10378657;28;20044;-49
2021/12/27 09:00:45;;;;;;;11.18;8.45;;;;;;;18.98;35.11;95995.28;10364172;28;20042;-49
2021/12/27 09:06:05;;;;;;;9.57;7.80;;;;;;;19.06;35.57;95992.44;10366523;28;20445;-49
2021/12/27 09:11:25;;;;;;;10.60;7.32;;;;;;;19.11;35.89;95994.91;10404155;28;20060;-49
2021/12/27 09:16:44;;;;;;;9.52;7.53;;;;;;;19.20;36.30;95993.97;10391253;28;20065;-49
2021/12/27 09:22:04;;;;;;;9.18;7.10;;;;;;;19.26;36.85;95984.50;10403805;28;20533;-49
2021/12/27 09:27:24;;;;;;;9.18;6.97;;;;;;;19.32;37.17;95978.53;10402184;28;20467;-49
2021/12/27 09:32:45;;;;;;;8.10;6.60;;;;;;;19.37;37.30;95972.13;10402760;28;20488;-50
2021/12/27 09:38:04;;;;;;;8.88;6.55;;;;;;;19.42;37.31;95969.16;10412359;28;20117;-49
2021/12/27 09:43:26;;;;;;;8.35;6.05;;;;;;;19.47;37.75;95962.75;10379536;28;20081;-50
2021/12/27 09:48:47;;;;;;;8.98;5.57;;;;;;;19.52;38.17;95951.66;10401324;28;20046;-49
2021/12/27 09:54:06;;;;;;;6.07;5.40;;;;;;;19.60;38.20;95949.94;10398637;28;20049;-49
2021/12/27 09:59:27;;;;;;;8.13;5.57;;;;;;;19.63;38.17;95947.34;10405026;28;20045;-51
2021/12/27 10:04:46;;;;;;;6.40;5.28;;;;;;;19.68;38.36;95947.13;10408983;28;20045;-49
2021/12/27 10:10:09;;;;;;;5.90;5.20;;;;;;;19.73;38.45;95948.81;10370100;28;20561;-53
2021/12/27 10:15:38;;;;;;;7.75;5.03;;;;;;;19.78;38.42;95934.25;10363028;28;20058;-49
2021/12/27 10:20:58;;;;;;;5.38;4.88;;;;;;;19.82;38.44;95919.69;10345201;28;20575;-48
2021/12/27 10:26:18;;;;;;;6.13;4.93;;;;;;;19.89;38.62;95909.06;10336885;28;20054;-48
2021/12/27 10:31:56;;;;;;;6.65;4.78;;;;;;;19.94;38.50;95908.81;10365133;28;20049;-48
2021/12/27 10:37:22;;;;;;;5.68;4.43;;;;;;;20.02;38.77;95906.28;10367683;28;20054;-49
2021/12/27 10:42:45;;;;;;;6.22;4.38;;;;;;;20.09;38.65;95903.75;10378052;28;20037;-49
2021/12/27 10:48:05;;;;;;;8.02;4.35;;;;;;;20.15;38.66;95905.09;10351694;28;20049;-49
2021/12/27 10:53:25;;;;;;;11.27;4.60;;;;;;;20.23;38.65;95906.00;10338985;28;20058;-51
2021/12/27 10:58:47;;;;;;;13.27;9.20;;;;;;;19.91;31.49;95893.28;10381717;28;20033;-50
2021/12/27 11:04:06;;;;;;;11.63;9.85;;;;;;;19.01;27.07;95884.69;10369255;28;20055;-49
2021/12/27 11:09:26;;;;;;;25.17;19.67;;;;;;;18.25;26.36;95873.56;10367359;28;20104;-49
2021/12/27 11:14:45;;;;;;;20.90;14.80;;;;;;;17.57;26.25;95874.03;10362249;28;20054;-49
2021/12/27 11:20:08;;;;;;;14.98;12.13;;;;;;;17.54;28.81;95871.97;10364467;28;20042;-49
2021/12/27 11:25:36;;;;;;;13.93;11.25;;;;;;;18.16;26.21;95864.81;10372667;28;20413;-50
2021/12/27 11:31:00;;;;;;;10.95;8.65;;;;;;;18.73;30.50;95855.72;10338931;28;20551;-50
2021/12/27 11:36:21;;;;;;;9.77;8.18;;;;;;;19.10;28.72;95847.53;10368155;28;20058;-50
2021/12/27 11:41:40;;;;;;;9.95;8.25;;;;;;;19.31;29.64;95849.25;10364969;28;20512;-51
2021/12/27 13:04:05;;;;;;;16.90;10.52;;;;;;;20.12;36.26;95809.19;10510605;27;20756;-51
2021/12/27 13:09:38;;;;;;;18.48;9.70;;;;;;;20.20;36.93;95812.84;10471642;28;20625;-51
2021/12/27 13:15:08;;;;;;;16.13;9.82;;;;;;;20.25;37.29;95807.19;10495555;28;20072;-52
2021/12/27 13:20:27;;;;;;;12.88;8.73;;;;;;;20.27;37.51;95796.78;10514704;28;20049;-52
2021/12/27 13:25:48;;;;;;;15.60;12.23;;;;;;;20.07;29.09;95805.97;10499737;28;20455;-52
2021/12/27 13:31:08;;;;;;;15.95;13.07;;;;;;;19.58;27.61;95800.91;10498250;28;20131;-52
2021/12/27 13:36:34;;;;;;;14.00;9.10;;;;;;;19.73;32.58;95813.69;10477123;28;20802;-50
2021/12/27 13:42:04;;;;;;;10.07;8.07;;;;;;;19.88;32.84;95812.91;10506470;28;20041;-52
2021/12/27 13:47:25;;;;;;;13.00;8.63;;;;;;;19.95;33.29;95807.66;10480711;28;20048;-53
2021/12/27 13:52:45;;;;;;;10.70;7.82;;;;;;;-146.19;100.00;65364.44;10476915;28;20056;-51
2021/12/27 13:58:23;;;;;;;13.45;8.27;;;;;;;-146.19;100.00;65364.44;10475311;28;20117;-50
2021/12/27 14:09:27;;;;;;;10.07;7.45;;;;;;;-146.19;100.00;65364.44;10366837;23;20526;-52
2021/12/27 14:14:49;;;;;;;9.35;7.00;;;;;;;20.07;35.55;95787.06;10141950;29;20685;-51
2021/12/27 14:25:39;;;;;;;9.88;6.70;;;;;;;20.11;36.27;95774.41;10076931;23;20130;-49
2021/12/27 14:30:59;;;;;;;8.93;6.32;;;;;;;20.13;36.40;95772.13;10227716;28;20565;-51
2021/12/27 14:36:18;;;;;;;8.82;6.65;;;;;;;20.15;36.49;95796.91;10246813;29;20059;-49
2021/12/27 14:41:37;;;;;;;7.95;6.53;;;;;;;20.15;36.77;95795.00;10173064;29;20436;-49
2021/12/27 14:46:57;;;;;;;7.60;6.28;;;;;;;20.19;37.02;95800.47;10202654;29;20529;-49
2021/12/27 14:52:17;;;;;;;8.00;6.63;;;;;;;20.20;37.01;95795.84;10209621;29;20407;-52
2021/12/27 14:57:36;;;;;;;8.60;6.30;;;;;;;20.23;37.38;95800.53;10207792;29;20532;-49
2021/12/27 15:02:56;;;;;;;9.90;6.60;;;;;;;20.24;37.70;95797.50;10210536;29;20056;-49
2021/12/27 15:08:16;;;;;;;7.20;6.25;;;;;;;20.25;37.94;95804.47;10206790;29;20051;-50
2021/12/27 15:13:37;;;;;;;7.68;6.30;;;;;;;20.27;38.07;95799.50;10202859;29;20047;-50
2021/12/27 15:18:56;;;;;;;6.78;6.07;;;;;;;20.29;38.17;95801.84;10211709;29;20093;-50
2021/12/27 15:24:16;;;;;;;7.55;5.80;;;;;;;20.29;38.36;95802.63;10214684;29;20059;-49
2021/12/27 15:29:36;;;;;;;6.97;6.10;;;;;;;20.30;38.63;95787.97;10220088;28;20044;-49
2021/12/27 15:34:56;;;;;;;7.45;5.70;;;;;;;20.30;38.74;95793.38;10206987;29;20056;-49
2021/12/27 15:40:16;;;;;;;6.93;5.72;;;;;;;20.29;38.51;95789.13;10210377;29;20068;-49
2021/12/27 15:45:36;;;;;;;7.38;6.10;;;;;;;20.30;38.45;95792.59;10208371;29;20044;-48
2021/12/27 15:50:56;;;;;;;9.95;6.10;;;;;;;20.30;38.62;95790.66;10209080;29;20416;-49
2021/12/27 15:56:16;;;;;;;6.75;6.05;;;;;;;20.29;38.59;95797.22;10208180;29;20074;-49
2021/12/27 16:01:35;;;;;;;8.18;6.72;;;;;;;20.28;38.36;95790.22;10205872;29;20079;-52
2021/12/27 16:06:55;;;;;;;10.15;6.63;;;;;;;20.28;38.93;95784.06;10212630;28;20062;-57
2021/12/27 16:12:14;;;;;;;9.35;6.40;;;;;;;20.30;39.47;95784.47;10217113;29;20135;-50
2021/12/27 16:59:12;;;;;;;9.25;5.53;;;;;;;20.17;41.95;95786.53;10608368;27;20390;-52
2021/12/27 17:04:32;;;;;;;6.55;5.85;;;;;;;20.23;41.88;95787.00;10565751;28;20047;-55
2021/12/27 17:09:52;;;;;;;6.45;5.57;;;;;;;20.28;41.73;95800.28;10566595;28;20059;-54
2021/12/27 17:15:12;;;;;;;7.80;5.70;;;;;;;20.30;41.71;95798.00;10564069;28;20402;-55
2021/12/27 17:20:34;;;;;;;6.60;4.97;;;;;;;20.32;41.61;95784.91;10579763;28;20657;-55
2021/12/27 17:25:53;;;;;;;7.13;5.45;;;;;;;20.35;41.86;95785.00;10565917;28;20054;-52
2021/12/27 17:31:13;;;;;;;5.97;5.38;;;;;;;20.37;41.85;95779.22;10579771;28;20036;-51
2021/12/27 17:36:32;;;;;;;6.97;5.30;;;;;;;20.40;41.72;95786.63;10565433;28;20044;-51
2021/12/27 17:41:54;;;;;;;7.57;5.35;;;;;;;20.43;41.64;95782.44;10565039;28;20052;-52
2021/12/27 17:47:14;;;;;;;5.47;4.82;;;;;;;20.45;41.61;95785.59;10565738;28;20040;-51
2021/12/27 17:52:34;;;;;;;6.25;4.72;;;;;;;20.48;41.78;95787.56;10563518;28;20044;-54
2021/12/27 17:57:53;;;;;;;5.63;4.57;;;;;;;20.48;41.62;95772.13;10547235;28;20048;-51
2021/12/27 18:03:13;;;;;;;6.97;4.78;;;;;;;20.50;41.62;95788.78;10536787;28;20062;-50
2021/12/27 18:08:33;;;;;;;6.80;5.10;;;;;;;20.51;41.62;95789.56;10533583;28;20499;-53
2021/12/27 18:13:53;;;;;;;6.65;4.85;;;;;;;20.52;41.55;95799.25;10536653;28;20071;-52
2021/12/27 18:19:13;;;;;;;7.68;4.85;;;;;;;20.51;41.62;95797.69;10546277;28;20102;-51
2021/12/27 18:24:32;;;;;;;8.27;7.22;;;;;;;20.48;38.79;95810.00;10525262;28;20048;-49
2021/12/27 18:29:52;;;;;;;7.07;5.88;;;;;;;20.46;40.68;95793.31;10547687;28;20040;-53
2021/12/27 18:35:12;;;;;;;8.25;6.13;;;;;;;20.48;41.07;95806.50;10547881;28;20040;-55
2021/12/27 18:40:31;;;;;;;7.57;5.88;;;;;;;20.47;41.24;95803.00;10545914;28;20032;-53
2021/12/27 18:45:50;;;;;;;7.80;5.50;;;;;;;20.48;41.26;95820.03;10531790;28;20050;-52
2021/12/27 18:51:11;;;;;;;6.25;5.00;;;;;;;20.48;41.24;95820.84;10533439;28;20513;-54
2021/12/27 18:56:33;;;;;;;8.20;5.78;;;;;;;20.48;41.69;95830.84;10537508;28;20080;-51
2021/12/27 19:01:52;;;;;;;10.45;5.88;;;;;;;20.47;42.09;95840.88;10530535;28;20060;-54
2021/12/27 19:07:12;;;;;;;9.55;5.80;;;;;;;20.48;42.16;95836.25;10547115;28;20044;-52
2021/12/27 19:12:32;;;;;;;8.85;5.40;;;;;;;20.47;42.01;95837.41;10532679;28;20044;-49
2021/12/27 19:17:51;;;;;;;10.52;5.22;;;;;;;20.48;41.96;95836.25;10526181;28;20097;-49
2021/12/27 19:23:11;;;;;;;7.57;6.65;;;;;;;20.45;41.86;95826.16;10523162;28;20036;-50
2021/12/27 19:28:31;;;;;;;8.27;5.28;;;;;;;20.44;42.30;95819.16;10538677;28;20040;-54
2021/12/27 19:33:50;;;;;;;7.72;5.38;;;;;;;20.43;42.53;95826.50;10533200;28;20056;-50
2021/12/27 19:39:11;;;;;;;8.75;5.97;;;;;;;20.44;42.78;95824.56;10530377;28;20059;-50
2021/12/27 19:44:31;;;;;;;10.27;5.65;;;;;;;20.44;42.77;95835.41;10626464;27;20043;-54
2021/12/27 19:49:51;;;;;;;7.38;5.60;;;;;;;20.43;43.06;95829.22;10625075;27;20058;-57
2021/12/27 19:55:12;;;;;;;6.75;5.75;;;;;;;20.43;43.06;95834.63;10610315;27;20104;-49
2021/12/27 20:00:33;;;;;;;6.80;5.65;;;;;;;20.43;42.96;95828.44;10613980;27;20107;-56
2021/12/27 20:05:53;;;;;;;8.75;5.35;;;;;;;20.41;43.03;95839.59;10617139;27;20051;-52
2021/12/27 20:11:14;;;;;;;7.20;6.07;;;;;;;20.42;42.68;95845.78;10615726;27;20051;-50
2021/12/27 20:16:34;;;;;;;7.45;6.05;;;;;;;20.40;42.61;95839.94;10615862;27;20045;-50
2021/12/27 20:21:54;;;;;;;7.50;6.28;;;;;;;20.39;42.75;95835.69;10612720;27;20487;-48
2021/12/27 20:27:15;;;;;;;9.38;6.05;;;;;;;20.40;42.78;95850.78;10615056;27;20508;-51
2021/12/27 20:32:35;;;;;;;7.10;6.40;;;;;;;20.39;42.91;95847.28;10627523;27;20039;-49
2021/12/27 20:37:56;;;;;;;7.18;6.47;;;;;;;20.37;42.75;95852.25;10615127;27;20092;-50
2021/12/27 20:43:16;;;;;;;7.60;6.82;;;;;;;20.38;42.95;95844.94;10625248;27;20042;-51
2021/12/27 20:48:36;;;;;;;8.90;7.53;;;;;;;20.34;42.85;95834.81;10598160;28;20414;-52
2021/12/27 20:53:55;;;;;;;9.02;7.50;;;;;;;20.33;42.84;95833.25;10612260;28;20413;-51
2021/12/27 20:59:15;;;;;;;7.85;7.05;;;;;;;20.33;42.82;95830.53;10627026;27;20031;-50
2021/12/27 21:04:38;;;;;;;8.60;7.10;;;;;;;20.32;42.69;95834.38;10613500;28;20085;-50
2021/12/27 21:09:58;;;;;;;8.80;7.90;;;;;;;20.32;43.24;95830.88;10612288;28;20497;-52
2021/12/27 21:15:18;;;;;;;10.27;8.02;;;;;;;20.31;43.12;95834.75;10614004;28;20039;-51
2021/12/27 21:20:39;;;;;;;15.57;10.70;;;;;;;20.29;43.44;95829.69;10583896;28;20414;-50
2021/12/27 21:25:59;;;;;;;17.65;9.57;;;;;;;20.31;43.55;95823.94;10612720;28;20478;-52
2021/12/27 21:31:18;;;;;;;13.88;9.73;;;;;;;20.30;43.87;95828.53;10614211;27;20073;-51
2021/12/27 21:36:39;;;;;;;15.95;9.82;;;;;;;20.30;44.05;95825.03;10626403;27;20043;-54
2021/12/27 21:42:01;;;;;;;16.20;9.80;;;;;;;20.28;44.08;95844.31;10594748;27;20055;-50
2021/12/27 21:47:22;;;;;;;14.40;9.23;;;;;;;20.27;44.05;95850.88;10615462;27;20520;-54
2021/12/27 21:52:42;;;;;;;16.48;10.23;;;;;;;20.25;44.02;95850.47;10614786;27;20046;-52
2021/12/27 21:58:05;;;;;;;13.32;9.65;;;;;;;20.24;43.84;95854.28;10617045;27;20056;-50
2021/12/27 22:03:25;;;;;;;14.63;9.15;;;;;;;20.23;43.95;95847.31;10606546;27;20050;-54
2021/12/27 22:08:45;;;;;;;15.25;9.60;;;;;;;20.21;43.94;95846.09;10617780;27;20061;-51
2021/12/27 22:14:08;;;;;;;14.23;8.88;;;;;;;20.19;43.82;95832.94;10620097;27;20470;-51
2021/12/27 22:19:27;;;;;;;17.67;9.48;;;;;;;20.19;43.63;95832.94;10614042;27;20051;-51
2021/12/27 22:24:46;;;;;;;14.73;9.02;;;;;;;20.19;43.53;95834.84;10619731;27;20047;-51
2021/12/27 22:30:08;;;;;;;14.43;9.27;;;;;;;20.17;43.47;95831.69;10620351;27;20112;-54
2021/12/27 22:35:28;;;;;;;16.23;9.07;;;;;;;20.14;43.54;95820.44;10604853;27;20055;-52
2021/12/27 22:40:48;;;;;;;13.93;8.90;;;;;;;20.13;43.76;95815.38;10618586;27;20047;-52
2021/12/27 22:46:07;;;;;;;14.15;9.07;;;;;;;20.11;43.46;95806.84;10611200;27;20131;-50
2021/12/27 22:51:27;;;;;;;15.82;8.65;;;;;;;20.09;43.56;95798.28;10616867;27;20058;-51
2021/12/27 22:56:46;;;;;;;14.65;8.82;;;;;;;20.07;43.26;95814.09;10615894;27;20562;-51
2021/12/27 23:02:06;;;;;;;13.50;8.05;;;;;;;20.06;43.28;95817.94;10611904;27;20535;-52
2021/12/27 23:07:25;;;;;;;15.70;9.40;;;;;;;20.03;43.51;95819.44;10623805;27;20103;-51
2021/12/27 23:12:46;;;;;;;13.05;7.75;;;;;;;20.03;43.85;95821.34;10611161;27;20478;-52
2021/12/27 23:18:06;;;;;;;12.45;7.93;;;;;;;20.01;44.02;95818.19;10610215;27;20197;-54
2021/12/27 23:23:26;;;;;;;11.35;8.10;;;;;;;19.98;44.17;95803.47;10610116;27;20051;-51
2021/12/27 23:28:45;;;;;;;11.02;7.53;;;;;;;19.96;44.00;95797.63;10631275;27;20043;-51
2021/12/27 23:34:07;;;;;;;11.50;7.70;;;;;;;19.95;44.15;95809.56;10616826;27;20055;-52
2021/12/27 23:39:27;;;;;;;10.95;7.70;;;;;;;19.93;44.16;95807.25;10609184;27;20051;-53
2021/12/27 23:44:46;;;;;;;10.32;7.82;;;;;;;19.91;44.00;95804.06;10637079;27;20039;-50
2021/12/27 23:50:06;;;;;;;10.35;7.43;;;;;;;19.91;43.66;95804.06;10606153;27;20058;-53
2021/12/27 23:55:26;;;;;;;10.00;7.03;;;;;;;19.88;43.48;95788.56;10613339;27;20039;-51
